Nearby METAR Reports

 

KSEE - San Diego/Santee, California, USA
Distance from station: E 4mi, 6km
Updated: 02/29/2020 5:35am
Clear
Clear
 Wind from calm
Wind: Calm
Temperature: 45°F , 7°C
Dew Point: 37°F , 3°C
Humidity: 76%
Barometer: 30.08 inHg , 1018.6 hPa
Clouds: Clear
Visibility: 10 miles , 16 km
2020/02/29 13:35 KSEE 291335Z AUTO 00000KT 10SM CLR 07/03 A3008 RMK AO2
KMYF - San Diego/Mntgmy, California, USA
Distance from station: W 6mi, 10km
Updated: 02/29/2020 4:53am
Clear
Clear
 Wind from calm
Wind: Calm
Temperature: 52°F , 11°C
Dew Point: 36°F , 2°C
Humidity: 54%
Barometer: 30.07 inHg , 1018.3 hPa
Clouds: Clear
Visibility: 10 miles , 16 km
2020/02/29 12:53 KMYF 291253Z AUTO 00000KT 10SM CLR 11/02 A3007 RMK AO2 SLP181 T01110022
 
KNKX - Miramar Nas/San, California, USA
Distance from station: WNW 7mi, 11km
Updated: 02/29/2020 4:55am
Mostly cloudy
Mostly cloudy
 Wind from E
Wind: E 7 mph , 11 km/h
Temperature: 46°F , 8°C
Wind Chill: 42°F , 6°C
Dew Point: 36°F , 2°C
Humidity: 66%
Barometer: 30.06 inHg , 1017.9 hPa
Clouds: Mostly cloudy
Visibility: 10 miles , 16 km
Cloud details: Mostly cloudy 20000 ft
2020/02/29 12:55 KNKX 291255Z 09006KT 10SM BKN200 08/02 A3006 RMK AO2 SLP177 T00830022 $
KSAN - San Diego, California, USA
Distance from station: WSW 11mi, 17km
Updated: 02/29/2020 5:51am
Mostly cloudy
Mostly cloudy
 Wind from calm
Wind: Calm
Temperature: 55°F , 13°C
Dew Point: 45°F , 7°C
Humidity: 67%
Barometer: 30.09 inHg , 1019 hPa
Clouds: Mostly cloudy
Visibility: 10 miles , 16 km
Cloud details: Mostly cloudy 14000 ft
Mostly cloudy 25000 ft
2020/02/29 13:51 KSAN 291351Z 00000KT 10SM BKN140 BKN250 13/07 A3009 RMK AO2 SLP189 T01280072 $
 
KNZY - North Island Nas, California, USA
Distance from station: SW 13mi, 22km
Updated: 02/29/2020 4:52am
Clear
Clear
 Wind from E
Wind: E 5 mph , 7 km/h
Temperature: 52°F , 11°C
Dew Point: 43°F , 6°C
Humidity: 72%
Barometer: 30.06 inHg , 1017.9 hPa
Clouds: Clear
Visibility: 10 miles , 16 km
2020/02/29 12:52 KNZY 291252Z AUTO 08004KT 10SM CLR 11/06 A3006 RMK AO2 SLP178 T01110056
KRNM - Ramona, California, USA
Distance from station: NNE 16mi, 26km
Updated: 02/29/2020 4:53am
Clear
Clear
 Wind from calm
Wind: Calm
Temperature: 34°F , 1°C
Dew Point: 30°F , -1°C
Humidity: 87%
Barometer: 30.07 inHg , 1018.3 hPa
Clouds: Clear
Visibility: 10 miles , 16 km
2020/02/29 12:53 KRNM 291253Z AUTO 00000KT 10SM CLR 01/M01 A3007 RMK AO2 SLP180 T00111006
 
KSDM - San Diego/Brown, California, USA
Distance from station: S 16mi, 26km
Updated: 02/29/2020 4:53am
Clear
Clear
 Wind from calm
Wind: Calm
Temperature: 45°F , 7°C
Dew Point: 32°F , 0°C
Humidity: 61%
Barometer: 30.06 inHg , 1017.9 hPa
Clouds: Clear
Visibility: 10 miles , 16 km
2020/02/29 12:53 KSDM 291253Z AUTO 00000KT 10SM CLR 07/00 A3006 RMK AO2 SLP177 T00670000
KNRS - Imperial Beach, California, USA
Distance from station: SSW 18mi, 29km
Updated: 02/29/2020 5:45am
Partly cloudy
Partly cloudy
 
Barometer: 30.09 inHg , 1019 hPa
Clouds: Partly cloudy
Visibility: 10 miles , 16 km
Cloud details: Partly cloudy 900 ft
Partly cloudy 11000 ft
2020/02/29 13:45 KNRS 291345Z AUTO 10SM SCT009 SCT110 A3009 RMK AO2 $
 
MMTJ - Tijuana Intl Arp, Mexico
Distance from station: S 20mi, 32km
Updated: 02/29/2020 4:41am
Clear
Clear
 Wind from SE
Wind: SE 5 mph , 7 km/h
Temperature: 52°F , 11°C
Dew Point: 30°F , -1°C
Humidity: 44%
Barometer: 30.09 inHg , 1019 hPa
Clouds: Clear
Visibility: 7 miles , 11 km
2020/02/29 12:41 MMTJ 291241Z 13004KT 7SM SKC 11/M01 A3009 RMK ISOL CI
KCRQ - Carlsbad, California, USA
Distance from station: NW 26mi, 43km
Updated: 02/29/2020 4:53am
Clear
Clear
 Wind from calm
Wind: Calm
Temperature: 52°F , 11°C
Dew Point: 37°F , 3°C
Humidity: 58%
Barometer: 30.06 inHg , 1017.9 hPa
Clouds: Clear
Visibility: 10 miles , 16 km
2020/02/29 12:53 KCRQ 291253Z AUTO 00000KT 10SM CLR 11/03 A3006 RMK AO2 SLP176 T01110028
 
KOKB - Oceanside, California, USA
Distance from station: NW 33mi, 54km
Updated: 02/29/2020 5:52am
Clear
Clear
 Wind from calm
Wind: Calm
Temperature: 43°F , 6°C
Dew Point: 37°F , 3°C
Humidity: 81%
Barometer: 30.08 inHg , 1018.6 hPa
Clouds: Clear
Visibility: 7 miles , 11 km
2020/02/29 13:52 KOKB 291352Z AUTO 00000KT 7SM CLR 06/03 A3008 RMK AO2 SLP184 T00610033
KCZZ - Campo, California, USA
Distance from station: ESE 35mi, 56km
Updated: 02/29/2020 5:52am

 Wind from ENE
Wind: ENE 7 mph , 11 km/h
Temperature: 36°F , 2°C
Wind Chill: 30°F , -1°C
Dew Point: 23°F , -5°C
Humidity: 60%
Barometer: 30.07 inHg , 1018.3 hPa
2020/02/29 13:52 KCZZ 291352Z AUTO 06006KT 02/M05 A3007 RMK AO1 SLP169 T00171050
 
KNFG - Camp Pendleton, California, USA
Distance from station: NNW 37mi, 59km
Updated: 02/29/2020 4:55am
Clear
Clear
 Wind from calm
Wind: Calm
Temperature: 43°F , 6°C
Dew Point: 36°F , 2°C
Humidity: 76%
Barometer: 30.07 inHg , 1018.3 hPa
Clouds: Clear
Visibility: 10 miles , 16 km
2020/02/29 12:55 KNFG 291255Z AUTO 00000KT 10SM CLR 06/02 A3007 RMK AO2 SLP182 T00610022
KRIV - Riverside/March, California, USA
Distance from station: N 74mi, 119km
Updated: 02/29/2020 4:58am
Few Clouds
Few Clouds
 Wind from calm
Wind: Calm
Temperature: 39°F , 4°C
Dew Point: 28°F , -2°C
Humidity: 65%
Barometer: 30.06 inHg , 1017.9 hPa
Clouds: Few Clouds
Visibility: 10 miles , 16 km
Cloud details: Few Clouds 16000 ft
2020/02/29 12:58 KRIV 291258Z AUTO 00000KT 10SM FEW160 04/M02 A3006 RMK AO2 SLP175 T00361018
 
KTRM - Thermal/Palm Spg, California, USA
Distance from station: NE 75mi, 121km
Updated: 02/29/2020 5:52am
Clear
Clear
 Wind from N
Wind: N 6 mph , 9 km/h
Temperature: 46°F , 8°C
Wind Chill: 43°F , 6°C
Dew Point: 30°F , -1°C
Humidity: 53%
Barometer: 29.98 inHg , 1015.2 hPa
Clouds: Clear
Visibility: 10 miles , 16 km
2020/02/29 13:52 KTRM 291352Z AUTO 36005KT 10SM CLR 08/M01 A2998 RMK AO2 SLP152 T00831006
KPSP - Palm Springs, California, USA
Distance from station: NNE 76mi, 122km
Updated: 02/29/2020 4:53am
Clear
Clear
 Wind from calm
Wind: Calm
Temperature: 57°F , 14°C
Dew Point: 28°F , -2°C
Humidity: 33%
Barometer: 30.00 inHg , 1015.9 hPa
Clouds: Clear
Visibility: 10 miles , 16 km
2020/02/29 12:53 KPSP 291253Z AUTO 00000KT 10SM CLR 14/M02 A3000 RMK AO2 SLP159 T01391022
 
KSNA - Costa Mesa, California, USA
Distance from station: NW 76mi, 123km
Updated: 02/29/2020 4:53am
Clear
Clear
 Wind from calm
Wind: Calm
Temperature: 61°F , 16°C
Dew Point: 45°F , 7°C
Humidity: 55%
Barometer: 30.05 inHg , 1017.6 hPa
Clouds: Clear
Visibility: 10 miles , 16 km
2020/02/29 12:53 KSNA 291253Z AUTO 00000KT 10SM CLR 16/07 A3005 RMK AO2 SLP175 T01560067
KNJK - El Centro Naf, California, USA
Distance from station: E 79mi, 127km
Updated: 02/29/2020 4:56am
Clear
Clear
 Wind from SSW
Wind: SSW 6 mph , 9 km/h
Temperature: 48°F , 9°C
Wind Chill: 45°F , 7°C
Dew Point: 27°F , -3°C
Humidity: 43%
Barometer: 30.00 inHg , 1015.9 hPa
Clouds: Clear
Visibility: 10 miles , 16 km
2020/02/29 12:56 KNJK 291256Z AUTO 20005KT 10SM CLR 09/M03 A3000 RMK AO2 SLP176 T00891033 $
 
KAJO - Corona Muni, California, USA
Distance from station: NNW 82mi, 132km
Updated: 02/29/2020 4:56am
Clear
Clear
 Wind from calm
Wind: Calm
Temperature: 46°F , 8°C
Dew Point: 36°F , 2°C
Humidity: 66%
Barometer: 30.07 inHg , 1018.3 hPa
Clouds: Clear
Visibility: 10 miles , 16 km
2020/02/29 12:56 KAJO 291256Z AUTO 00000KT 10SM CLR 08/02 A3007 RMK AO2 SLP178 T00830022